Time;durP1;ratioP1;P1;durP2;ratioP2;P2;SDS_P1;SDS_P2;PMS_P1;PMS_P2;Temp;Humidity;BMP_temperature;BMP_pressure;BME280_temperature;BME280_humidity;BME280_pressure;Samples;Min_cycle;Max_cycle;Signal;HPM_P1;HPM_P2
2023/10/10 07:29:28;;;;;;;0.15;0.15;;;;;;;15.68;100.00;96414.66;1023214;29;20110;-70
2023/10/10 07:29:59;;;;;;;1.65;0.75;;;;;;;15.65;100.00;96407.25;1018617;29;20031;-70
2023/10/10 07:30:35;;;;;;;0.15;0.15;;;;;;;15.70;100.00;96409.88;1014507;29;20024;-70
2023/10/10 07:31:07;;;;;;;1.15;0.77;;;;;;;15.69;100.00;96413.59;1022594;29;20159;-68
2023/10/10 07:31:40;;;;;;;1.42;1.20;;;;;;;15.71;100.00;96419.38;1018694;29;20134;-70
2023/10/10 07:32:17;;;;;;;6.18;0.50;;;;;;;15.64;100.00;96416.25;1014836;29;20020;-71
2023/10/10 07:32:48;;;;;;;0.77;0.47;;;;;;;15.71;100.00;96419.38;1018991;29;20021;-70
2023/10/10 07:33:23;;;;;;;1.13;1.02;;;;;;;15.74;100.00;96410.91;1014994;29;20023;-70
2023/10/10 07:34:00;;;;;;;1.65;1.52;;;;;;;15.74;100.00;96410.91;1010936;29;20012;-70
2023/10/10 07:34:35;;;;;;;8.93;2.30;;;;;;;15.75;100.00;96416.97;1014816;29;20119;-70
2023/10/10 07:35:05;;;;;;;2.40;1.13;;;;;;;15.74;100.00;96418.84;1014731;29;20538;-70
2023/10/10 07:35:36;;;;;;;4.90;1.13;;;;;;;15.81;100.00;96425.66;1011071;29;20024;-70
2023/10/10 07:36:12;;;;;;;12.52;1.65;;;;;;;15.77;100.00;96420.16;1010779;29;20423;-70
2023/10/10 07:36:50;;;;;;;0.55;0.50;;;;;;;15.91;100.00;96425.56;1015048;29;20036;-71
2023/10/10 07:37:23;;;;;;;2.65;2.45;;;;;;;15.97;100.00;96424.47;1012368;29;20095;-70
2023/10/10 07:37:58;;;;;;;2.95;0.98;;;;;;;15.94;100.00;96415.22;1011148;29;20025;-70
2023/10/10 07:38:29;;;;;;;5.15;1.23;;;;;;;16.02;100.00;96424.41;1009974;29;20115;-70
2023/10/10 07:39:55;;;;;;;0.50;0.47;;;;;;;16.11;100.00;96425.38;1018902;29;20031;-70
2023/10/10 07:40:30;;;;;;;2.45;1.05;;;;;;;16.06;100.00;96422.75;1010769;29;20426;-71
2023/10/10 07:41:04;;;;;;;0.80;0.68;;;;;;;16.06;100.00;96422.75;1006822;29;20021;-70
2023/10/10 07:41:35;;;;;;;4.43;2.78;;;;;;;16.04;100.00;96419.63;1014649;29;20028;-70
2023/10/10 07:42:09;;;;;;;0.95;0.75;;;;;;;16.11;100.00;96419.28;1010887;29;20073;-70
2023/10/10 07:42:39;;;;;;;0.80;0.65;;;;;;;16.17;100.00;96420.81;1014765;29;20114;-70
2023/10/10 07:43:10;;;;;;;1.60;0.43;;;;;;;16.27;100.00;96420.72;1011810;29;20062;-72
2023/10/10 07:43:42;;;;;;;2.17;1.90;;;;;;;16.21;100.00;96409.38;1014724;29;20111;-69
2023/10/10 07:44:16;;;;;;;0.63;0.55;;;;;;;16.32;100.00;96422.50;1014841;29;20036;-71
2023/10/10 07:44:47;;;;;;;2.03;0.98;;;;;;;16.34;100.00;96417.72;1019243;29;20024;-70
2023/10/10 07:45:26;;;;;;;5.68;2.28;;;;;;;16.41;100.00;96424.25;1014788;29;20027;-70
2023/10/10 07:45:57;;;;;;;1.83;0.50;;;;;;;16.43;100.00;96421.31;1007116;29;20076;-70
2023/10/10 07:46:27;;;;;;;3.03;1.10;;;;;;;16.46;100.00;96424.19;1008270;29;20080;-69
2023/10/10 07:49:02;;;;;;;2.80;1.90;;;;;;;16.51;100.00;96423.34;1018623;29;20035;-70
2023/10/10 07:49:33;;;;;;;2.55;1.63;;;;;;;16.46;100.00;96420.75;1022740;29;20023;-70
2023/10/10 07:50:08;;;;;;;2.80;0.88;;;;;;;16.45;100.00;96416.53;1019218;29;20024;-69
2023/10/10 07:50:48;;;;;;;2.47;1.20;;;;;;;16.48;100.00;96424.69;1018693;29;20119;-69
2023/10/10 07:51:34;;;;;;;2.35;2.15;;;;;;;16.50;100.00;96422.56;1018530;29;20030;-69
2023/10/10 07:52:04;;;;;;;0.63;0.63;;;;;;;16.61;100.00;96423.22;1022452;29;20040;-70
2023/10/10 07:52:39;;;;;;;3.03;2.47;;;;;;;16.56;100.00;96420.63;1015627;29;20024;-69
2023/10/10 07:53:12;;;;;;;0.25;0.25;;;;;;;16.53;100.00;96421.19;1013951;29;20031;-69
2023/10/10 07:53:44;;;;;;;1.35;0.88;;;;;;;16.54;100.00;96406.09;1012283;29;20029;-69
2023/10/10 07:54:28;;;;;;;4.22;2.35;;;;;;;16.61;100.00;96422.44;1012420;29;20021;-69
2023/10/10 07:55:04;;;;;;;0.65;0.65;;;;;;;16.61;100.00;96427.72;1011076;29;20109;-69
2023/10/10 07:55:53;;;;;;;2.55;1.27;;;;;;;16.68;100.00;96428.97;1015056;29;20763;-69
2023/10/10 07:56:23;;;;;;;4.28;1.48;;;;;;;16.68;100.00;96426.31;1015805;29;20028;-68
2023/10/10 07:56:55;;;;;;;1.13;1.02;;;;;;;16.72;100.00;96427.31;1014762;29;20036;-68
2023/10/10 07:57:28;;;;;;;1.30;1.00;;;;;;;16.68;100.00;96418.34;1010787;29;20017;-68
2023/10/10 07:58:06;;;;;;;8.32;1.58;;;;;;;16.74;100.00;96427.03;1017210;29;20453;-68
2023/10/10 07:58:56;;;;;;;2.40;1.42;;;;;;;16.77;100.00;96409.78;1014645;29;20076;-69
2023/10/10 07:59:27;;;;;;;0.38;0.38;;;;;;;16.77;100.00;96420.41;1018554;29;20026;-69
2023/10/10 07:59:58;;;;;;;0.40;0.40;;;;;;;16.77;100.00;96423.84;1011026;29;20410;-70
2023/10/10 08:00:35;;;;;;;2.20;0.80;;;;;;;16.81;100.00;96422.22;1014754;29;20488;-70
2023/10/10 08:01:09;;;;;;;2.05;1.63;;;;;;;16.82;100.00;96417.69;1010672;29;20025;-70
2023/10/10 08:01:44;;;;;;;2.10;0.93;;;;;;;16.84;100.00;96415.56;1014125;29;20075;-68
2023/10/10 08:03:20;;;;;;;1.48;1.33;;;;;;;16.92;100.00;96420.19;1006522;29;20067;-70
2023/10/10 08:03:50;;;;;;;2.40;1.27;;;;;;;16.97;100.00;96422.81;1007756;29;20037;-70
2023/10/10 08:04:22;;;;;;;1.65;1.10;;;;;;;16.95;100.00;96422.28;1014223;29;20073;-70
2023/10/10 08:04:57;;;;;;;1.67;1.15;;;;;;;17.01;100.00;96413.19;1018675;29;20012;-71
2023/10/10 08:05:29;;;;;;;1.63;0.50;;;;;;;17.05;100.00;96422.16;1018521;29;20019;-70
2023/10/10 08:06:00;;;;;;;0.20;0.20;;;;;;;17.12;100.00;96422.56;1014748;29;20073;-71
2023/10/10 08:06:33;;;;;;;0.65;0.65;;;;;;;17.18;100.00;96424.06;1014602;29;20028;-70
2023/10/10 08:07:03;;;;;;;3.28;1.42;;;;;;;17.28;100.00;96420.50;1010675;29;20025;-70
2023/10/10 08:07:35;;;;;;;3.45;1.83;;;;;;;17.38;100.00;96427.50;1010713;29;20411;-70
2023/10/10 08:08:05;;;;;;;2.22;1.38;;;;;;;17.39;100.00;96416.59;1018532;29;20123;-70
2023/10/10 08:08:36;;;;;;;1.42;1.33;;;;;;;17.42;100.00;96420.53;1018725;29;20074;-71
2023/10/10 08:09:46;;;;;;;1.98;1.48;;;;;;;17.45;100.00;96422.63;1021194;29;20463;-70
2023/10/10 08:10:29;;;;;;;0.68;0.68;;;;;;;17.56;100.00;96421.38;1014681;29;20028;-70
2023/10/10 08:11:05;;;;;;;1.08;0.45;;;;;;;17.61;100.00;96431.91;1018707;29;20031;-70
2023/10/10 08:11:36;;;;;;;1.75;1.35;;;;;;;17.70;100.00;96421.41;1019877;29;20038;-70
2023/10/10 08:12:07;;;;;;;1.83;1.67;;;;;;;17.80;100.00;96425.78;1014618;29;20035;-71
2023/10/10 08:12:39;;;;;;;0.57;0.57;;;;;;;17.85;100.00;96417.75;1015649;29;20020;-70
2023/10/10 08:13:12;;;;;;;1.75;1.42;;;;;;;18.03;100.00;96427.50;1018384;29;20088;-71
2023/10/10 08:13:48;;;;;;;0.77;0.77;;;;;;;17.96;100.00;96423.66;1014660;29;20016;-70
2023/10/10 08:14:21;;;;;;;3.42;2.08;;;;;;;18.12;100.00;96428.41;1014780;29;20036;-69
2023/10/10 08:14:59;;;;;;;9.85;3.63;;;;;;;18.22;100.00;96424.78;1016375;29;20028;-69
2023/10/10 08:15:30;;;;;;;0.40;0.20;;;;;;;18.26;100.00;96414.34;1016736;29;20016;-69
2023/10/10 08:16:03;;;;;;;2.72;1.15;;;;;;;18.34;100.00;96417.13;1006833;29;20021;-68
2023/10/10 08:16:43;;;;;;;2.65;1.75;;;;;;;18.42;100.00;96420.97;1010790;29;20063;-69
2023/10/10 08:17:25;;;;;;;3.63;0.40;;;;;;;18.63;100.00;96412.56;1012168;29;20020;-71
2023/10/10 08:17:58;;;;;;;3.15;1.13;;;;;;;18.49;100.00;96418.69;1014728;29;20028;-69
2023/10/10 08:19:15;;;;;;;2.30;1.00;;;;;;;18.34;100.00;96417.13;1018261;29;20012;-71
2023/10/10 08:19:51;;;;;;;2.65;1.88;;;;;;;18.37;100.00;96413.06;1014751;29;20039;-68
2023/10/10 08:20:35;;;;;;;0.90;0.88;;;;;;;18.41;100.00;96422.06;1022274;29;20054;-68
2023/10/10 08:21:09;;;;;;;3.90;1.85;;;;;;;18.60;100.00;96424.59;1015196;29;20025;-71
2023/10/10 08:21:48;;;;;;;2.45;1.63;;;;;;;18.36;100.00;96412.28;1002898;29;20036;-69
2023/10/10 08:22:25;;;;;;;1.58;0.93;;;;;;;18.43;100.00;96422.53;1006853;29;20025;-71
2023/10/10 08:22:59;;;;;;;3.22;1.95;;;;;;;18.55;100.00;96419.38;1011730;29;20024;-68
2023/10/10 08:23:30;;;;;;;3.30;2.30;;;;;;;18.57;100.00;96417.19;1010432;29;20497;-69
2023/10/10 08:24:01;;;;;;;4.07;1.17;;;;;;;18.74;100.00;96419.28;1018562;29;20557;-69
2023/10/10 08:24:33;;;;;;;0.93;0.93;;;;;;;18.73;100.00;96420.38;1014483;29;20059;-71
2023/10/10 08:25:05;;;;;;;0.93;0.82;;;;;;;18.80;100.00;96415.44;1010827;29;20020;-70
2023/10/10 08:25:38;;;;;;;1.52;0.95;;;;;;;18.97;100.00;96418.25;1006863;29;20357;-68
2023/10/10 08:26:17;;;;;;;6.18;0.60;;;;;;;18.97;100.00;96417.47;1014575;29;20024;-68
2023/10/10 08:26:51;;;;;;;1.77;1.58;;;;;;;19.17;100.00;96417.00;1010873;29;20032;-71
2023/10/10 08:27:22;;;;;;;3.47;0.90;;;;;;;19.45;100.00;96409.72;1018498;29;20027;-68
2023/10/10 08:27:55;;;;;;;0.88;0.88;;;;;;;19.61;100.00;96420.00;1020149;29;20027;-70
2023/10/10 08:28:25;;;;;;;2.97;0.63;;;;;;;19.65;100.00;96418.31;1023280;28;20030;-70
2023/10/10 08:28:56;;;;;;;1.20;1.08;;;;;;;19.76;100.00;96420.44;1026620;28;20097;-68
2023/10/10 08:29:27;;;;;;;2.42;0.63;;;;;;;19.82;100.00;96414.97;1023565;28;20027;-70
2023/10/10 08:29:57;;;;;;;3.35;3.05;;;;;;;19.97;100.00;96410.06;1014785;29;20031;-71
2023/10/10 08:30:28;;;;;;;1.00;0.60;;;;;;;19.84;100.00;96421.56;1013846;29;20784;-68
2023/10/10 08:30:59;;;;;;;3.55;0.68;;;;;;;19.84;100.00;96418.91;1017611;29;20047;-69
2023/10/10 08:31:30;;;;;;;6.60;1.40;;;;;;;19.93;100.00;96414.44;1014309;29;20024;-69
2023/10/10 08:32:00;;;;;;;3.13;1.40;;;;;;;19.82;100.00;96412.31;1018606;29;20110;-69
2023/10/10 08:32:31;;;;;;;1.50;1.23;;;;;;;19.87;100.00;96420.19;1014493;29;20091;-69
2023/10/10 08:33:02;;;;;;;0.77;0.77;;;;;;;19.76;100.00;96417.00;1014523;29;20039;-68
2023/10/10 08:33:33;;;;;;;1.90;1.05;;;;;;;19.78;100.00;96415.63;1014736;29;20020;-70
2023/10/10 08:34:04;;;;;;;2.45;1.80;;;;;;;19.87;100.00;96420.97;1001187;29;20026;-70
2023/10/10 08:34:38;;;;;;;0.45;0.45;;;;;;;19.69;100.00;96420.09;1003485;29;20136;-70
2023/10/10 08:35:10;;;;;;;0.60;0.60;;;;;;;19.63;100.00;96425.81;1007521;29;20410;-71
2023/10/10 08:35:42;;;;;;;0.93;0.73;;;;;;;19.65;100.00;96418.31;1007799;29;20452;-71
2023/10/10 08:36:25;;;;;;;0.80;0.80;;;;;;;19.82;100.00;96422.97;1010720;29;20029;-68
2023/10/10 08:37:03;;;;;;;0.75;0.28;;;;;;;19.87;100.00;96418.31;1017066;29;20023;-70
2023/10/10 08:37:34;;;;;;;3.05;1.05;;;;;;;19.88;100.00;96417.22;1014786;29;20406;-68
2023/10/10 08:38:05;;;;;;;1.55;1.08;;;;;;;20.11;100.00;96425.94;1011250;29;20017;-68
2023/10/10 08:38:42;;;;;;;0.52;0.47;;;;;;;19.87;100.00;96420.97;1014603;29;20020;-68
2023/10/10 08:39:49;;;;;;;0.93;0.70;;;;;;;19.92;100.00;96423.53;1014713;29;20679;-68
2023/10/10 08:40:20;;;;;;;1.25;0.43;;;;;;;19.72;100.00;96424.03;1014596;29;20024;-68
2023/10/10 08:40:57;;;;;;;0.90;0.55;;;;;;;19.67;100.00;96422.25;1018663;29;20024;-68
2023/10/10 08:41:29;;;;;;;0.28;0.28;;;;;;;19.34;100.00;96408.38;1010508;29;20052;-69
2023/10/10 08:42:00;;;;;;;1.40;0.93;;;;;;;19.34;100.00;96419.03;1030345;28;20175;-69
2023/10/10 08:42:35;;;;;;;1.52;1.25;;;;;;;19.35;100.00;96423.28;1010712;29;20029;-70
2023/10/10 08:43:12;;;;;;;0.95;0.57;;;;;;;19.43;100.00;96411.91;1014339;29;20439;-71
2023/10/10 08:43:45;;;;;;;0.20;0.15;;;;;;;19.32;100.00;96421.22;1014649;29;20020;-68
2023/10/10 08:44:17;;;;;;;6.97;1.40;;;;;;;19.52;100.00;96414.63;1022157;29;20141;-70
2023/10/10 08:44:48;;;;;;;6.25;2.45;;;;;;;19.65;100.00;96420.97;1014746;29;20051;-70
2023/10/10 08:45:25;;;;;;;1.58;1.42;;;;;;;19.78;100.00;96417.47;1022278;29;20074;-69
2023/10/10 08:45:56;;;;;;;3.75;0.95;;;;;;;19.91;100.00;96421.94;1026469;28;20018;-68
2023/10/10 08:46:30;;;;;;;6.75;2.15;;;;;;;19.87;100.00;96420.97;1022079;28;20015;-68
2023/10/10 08:47:01;;;;;;;2.03;1.85;;;;;;;20.21;100.00;96419.56;1012982;29;20091;-69
2023/10/10 08:47:32;;;;;;;2.30;1.08;;;;;;;20.30;100.00;96417.72;1014435;29;20115;-69
2023/10/10 08:48:03;;;;;;;3.55;1.20;;;;;;;20.20;100.00;96426.00;1006930;29;20045;-68
2023/10/10 08:48:33;;;;;;;1.48;1.30;;;;;;;20.23;100.00;96420.06;1006729;29;20115;-69
2023/10/10 08:49:04;;;;;;;4.88;2.45;;;;;;;20.31;100.00;96421.19;1010623;29;20407;-69
2023/10/10 08:49:35;;;;;;;1.55;0.95;;;;;;;20.44;100.00;96418.41;1010503;29;20372;-68
2023/10/10 08:50:06;;;;;;;2.92;1.25;;;;;;;20.16;100.00;96422.38;1010678;29;20028;-69
2023/10/10 08:50:37;;;;;;;5.68;0.77;;;;;;;20.15;100.00;96420.78;1011003;29;20024;-68
2023/10/10 08:51:07;;;;;;;6.18;1.83;;;;;;;20.07;100.00;96413.56;1006901;29;20028;-68
2023/10/10 08:51:39;;;;;;;0.35;0.35;;;;;;;20.07;100.00;96421.53;1006913;29;20017;-68
2023/10/10 08:52:09;;;;;;;7.05;1.60;;;;;;;20.01;100.00;96408.34;1011106;29;20035;-69
2023/10/10 08:52:41;;;;;;;0.68;0.68;;;;;;;19.94;100.00;96420.53;1011693;29;20097;-71
2023/10/10 08:53:12;;;;;;;4.10;1.45;;;;;;;19.90;100.00;96417.69;1008203;29;20025;-68
2023/10/10 08:53:43;;;;;;;3.13;1.83;;;;;;;19.93;100.00;96425.09;1010579;29;20644;-70
2023/10/10 08:54:15;;;;;;;25.23;0.90;;;;;;;19.98;100.00;96430.25;1011089;29;20029;-70
2023/10/10 08:54:45;;;;;;;3.60;0.60;;;;;;;19.88;100.00;96409.22;1008116;29;20029;-70
2023/10/10 08:55:18;;;;;;;0.30;0.22;;;;;;;19.84;100.00;96408.25;1014517;29;20682;-68
2023/10/10 08:55:56;;;;;;;1.80;0.70;;;;;;;19.92;100.00;96422.72;1006767;29;20060;-69
2023/10/10 08:56:28;;;;;;;1.73;1.63;;;;;;;19.80;100.00;96417.97;1014531;29;20366;-68
2023/10/10 08:56:59;;;;;;;26.00;1.80;;;;;;;19.84;100.00;96415.47;1014710;29;20027;-69
2023/10/10 08:57:30;;;;;;;1.60;1.45;;;;;;;19.79;100.00;96421.72;1018260;29;20033;-70
2023/10/10 08:58:00;;;;;;;1.17;1.10;;;;;;;19.75;100.00;96426.88;1014637;29;20048;-68
2023/10/10 08:58:31;;;;;;;0.85;0.60;;;;;;;19.62;100.00;96413.59;1010492;29;20028;-69
2023/10/10 08:59:02;;;;;;;1.10;1.00;;;;;;;19.55;100.00;96414.81;1014484;29;20032;-68
2023/10/10 08:59:35;;;;;;;2.22;1.92;;;;;;;19.52;100.00;96419.94;1010895;29;20033;-68
2023/10/10 09:00:06;;;;;;;3.22;1.27;;;;;;;19.47;100.00;96412.84;1014284;29;20056;-67
2023/10/10 09:00:37;;;;;;;4.03;0.70;;;;;;;19.52;100.00;96417.28;1014621;29;20642;-68
2023/10/10 09:01:08;;;;;;;3.10;1.13;;;;;;;19.63;100.00;96421.31;1014419;29;20024;-70
2023/10/10 09:01:39;;;;;;;2.30;0.60;;;;;;;19.58;100.00;96423.25;1006839;29;20028;-70
2023/10/10 09:02:16;;;;;;;9.70;1.45;;;;;;;19.55;100.00;96422.78;1014649;29;20024;-70
2023/10/10 09:02:48;;;;;;;5.38;3.17;;;;;;;19.46;100.00;96410.50;1015752;29;20024;-70
2023/10/10 09:03:19;;;;;;;1.85;1.35;;;;;;;19.53;100.00;96411.66;1015536;29;20457;-70
2023/10/10 09:03:50;;;;;;;2.92;1.25;;;;;;;19.51;100.00;96408.50;1010334;29;20073;-70
2023/10/10 09:04:20;;;;;;;0.52;0.52;;;;;;;19.68;100.00;96410.50;1018330;29;20374;-69
2023/10/10 09:04:51;;;;;;;0.47;0.47;;;;;;;19.77;100.00;96415.91;1010757;29;20774;-70
2023/10/10 09:05:24;;;;;;;8.77;0.60;;;;;;;19.79;100.00;96419.06;1010819;29;20714;-70
2023/10/10 09:05:55;;;;;;;2.80;1.27;;;;;;;19.84;100.00;96412.81;1006936;29;20048;-70
2023/10/10 09:06:33;;;;;;;1.00;0.68;;;;;;;19.74;100.00;96411.97;1010685;29;20371;-70
2023/10/10 09:07:08;;;;;;;3.40;1.17;;;;;;;19.79;100.00;96421.72;1018315;29;20428;-71
2023/10/10 09:07:42;;;;;;;1.75;0.57;;;;;;;19.83;100.00;96420.00;1018625;29;20016;-70
2023/10/10 09:08:16;;;;;;;3.85;1.45;;;;;;;19.86;100.00;96418.63;1020273;29;20026;-70
2023/10/10 09:08:49;;;;;;;0.65;0.52;;;;;;;19.82;100.00;96423.78;1014677;29;20020;-70
2023/10/10 09:09:39;;;;;;;0.95;0.75;;;;;;;19.84;100.00;96421.56;1017235;23;20087;-79
2023/10/10 09:10:18;;;;;;;1.35;0.68;;;;;;;19.84;100.00;96421.56;1010638;29;20040;-77
2023/10/10 09:10:53;;;;;;;1.02;0.50;;;;;;;19.77;100.00;96406.03;1018636;29;20456;-76
2023/10/10 09:11:24;;;;;;;0.15;0.15;;;;;;;19.92;100.00;96417.38;1014755;29;20094;-78
2023/10/10 09:11:56;;;;;;;1.25;0.50;;;;;;;19.88;100.00;96417.22;1010805;29;20048;-80
2023/10/10 09:12:27;;;;;;;4.43;1.60;;;;;;;19.86;100.00;96424.72;1017942;29;20580;-78
2023/10/10 09:12:58;;;;;;;1.42;1.27;;;;;;;19.99;100.00;96425.75;1018202;29;20047;-76
2023/10/10 09:13:31;;;;;;;0.45;0.45;;;;;;;19.99;100.00;96423.88;1010541;29;20077;-78
2023/10/10 09:14:03;;;;;;;1.83;0.57;;;;;;;20.02;100.00;96423.25;1018400;29;20090;-78
2023/10/10 09:14:49;;;;;;;3.72;1.52;;;;;;;20.16;100.00;96419.72;1018412;29;20028;-77
2023/10/10 09:15:20;;;;;;;3.60;1.85;;;;;;;20.10;100.00;96418.28;1014641;29;20108;-77
2023/10/10 09:15:54;;;;;;;1.40;1.23;;;;;;;20.13;100.00;96410.44;1014460;29;20028;-79
2023/10/10 09:16:44;;;;;;;6.85;0.93;;;;;;;20.09;100.00;96403.38;1014583;29;20036;-79
2023/10/10 09:17:28;;;;;;;0.47;0.45;;;;;;;20.11;100.00;96409.19;1014509;29;20080;-79
2023/10/10 09:18:16;;;;;;;2.47;2.28;;;;;;;20.13;100.00;96423.78;1018663;29;20054;-76
2023/10/10 09:19:04;;;;;;;3.67;1.52;;;;;;;20.24;100.00;96427.72;1018526;29;20119;-76
2023/10/10 09:19:39;;;;;;;0.57;0.47;;;;;;;20.08;100.00;96410.56;1010135;29;20021;-77
2023/10/10 09:20:22;;;;;;;1.10;0.82;;;;;;;20.18;100.00;96420.19;1014512;29;20036;-77
2023/10/10 09:20:53;;;;;;;2.15;0.75;;;;;;;20.13;100.00;96417.66;1014719;29;20028;-75
2023/10/10 09:21:24;;;;;;;1.08;0.98;;;;;;;20.29;100.00;96426.81;1010450;29;20033;-78
2023/10/10 09:21:56;;;;;;;6.43;0.68;;;;;;;20.36;100.00;96429.06;1014709;29;20024;-78
2023/10/10 09:22:34;;;;;;;0.93;0.93;;;;;;;20.17;100.00;96405.28;1017853;29;20112;-77
2023/10/10 09:23:22;;;;;;;3.72;1.48;;;;;;;20.33;100.00;96427.78;1010643;29;20024;-77
2023/10/10 09:24:08;;;;;;;0.77;0.68;;;;;;;20.34;100.00;96426.69;1007072;29;20060;-77
2023/10/10 09:24:41;;;;;;;1.35;1.23;;;;;;;20.20;100.00;96418.00;1011633;29;20024;-76
2023/10/10 09:25:48;;;;;;;3.67;1.23;;;;;;;20.15;100.00;96420.78;1010787;29;20028;-77
2023/10/10 09:26:29;;;;;;;1.75;1.45;;;;;;;20.16;100.00;96425.03;1009495;29;20021;-78
2023/10/10 09:27:10;;;;;;;3.83;1.60;;;;;;;20.13;100.00;96423.78;1012753;29;20558;-77
2023/10/10 09:27:43;;;;;;;0.98;0.95;;;;;;;20.17;100.00;96423.94;1020596;29;20020;-78
2023/10/10 09:28:15;;;;;;;1.55;0.68;;;;;;;20.22;100.00;96427.28;1018577;29;20032;-77
2023/10/10 09:28:49;;;;;;;1.35;1.10;;;;;;;20.17;100.00;96421.28;1016612;29;20448;-77
2023/10/10 09:29:42;;;;;;;3.15;0.82;;;;;;;20.11;100.00;96419.84;1009353;29;20017;-77
2023/10/10 09:30:15;;;;;;;0.88;0.40;;;;;;;20.22;100.00;96421.94;1018566;29;20028;-79
2023/10/10 09:31:12;;;;;;;1.05;0.95;;;;;;;20.24;100.00;96418.94;1022463;29;20468;-77
2023/10/10 09:31:45;;;;;;;0.30;0.30;;;;;;;20.25;100.00;96426.66;1015730;29;20119;-77
2023/10/10 09:32:17;;;;;;;2.63;1.00;;;;;;;20.23;100.00;96420.84;1014386;29;20069;-77
2023/10/10 09:32:48;;;;;;;0.55;0.47;;;;;;;20.34;100.00;96418.69;1010668;29;20123;-77
2023/10/10 09:33:54;;;;;;;3.33;1.63;;;;;;;20.31;100.00;96413.97;1016313;29;20013;-77
2023/10/10 09:34:28;;;;;;;0.43;0.40;;;;;;;20.29;100.00;96421.50;1024432;28;20039;-78
2023/10/10 09:34:59;;;;;;;0.43;0.28;;;;;;;20.32;100.00;96422.72;1029116;28;20109;-77
2023/10/10 09:35:29;;;;;;;0.43;0.43;;;;;;;20.36;100.00;96416.50;1022405;29;20019;-77
2023/10/10 09:36:15;;;;;;;5.10;0.93;;;;;;;20.47;100.00;96425.78;1018598;29;20027;-76
2023/10/10 09:36:53;;;;;;;0.52;0.30;;;;;;;20.49;100.00;96418.28;1018710;29;20031;-77
2023/10/10 09:37:30;;;;;;;0.77;0.73;;;;;;;20.71;100.00;96429.94;1010811;29;20025;-77
2023/10/10 09:38:00;;;;;;;1.92;1.05;;;;;;;20.57;100.00;96415.97;1006993;29;20096;-77
2023/10/10 09:38:35;;;;;;;1.65;1.13;;;;;;;20.65;100.00;96421.31;1010791;29;20039;-76
2023/10/10 09:39:08;;;;;;;1.70;1.25;;;;;;;20.60;100.00;96426.00;1018490;29;20027;-78
2023/10/10 09:39:41;;;;;;;2.30;1.42;;;;;;;20.57;100.00;96423.97;1010744;29;20017;-78
2023/10/10 09:40:18;;;;;;;1.25;1.15;;;;;;;20.64;100.00;96422.41;1008031;29;20080;-77
2023/10/10 09:40:59;;;;;;;0.57;0.25;;;;;;;20.61;100.00;96419.56;1012883;29;20171;-77
2023/10/10 09:43:35;;;;;;;1.70;1.45;;;;;;;20.71;100.00;96419.28;1014955;29;20071;-79
2023/10/10 09:45:55;;;;;;;1.25;1.15;;;;;;;20.82;100.00;96423.22;1018275;29;20015;-80
2023/10/10 09:46:36;;;;;;;0.77;0.50;;;;;;;20.84;100.00;96415.69;1010349;29;20627;-78
2023/10/10 09:47:43;;;;;;;1.65;1.55;;;;;;;20.87;100.00;96420.41;1018887;29;19914;-78
2023/10/10 09:48:46;;;;;;;0.43;0.40;;;;;;;20.94;100.00;96420.72;1006732;29;20021;-76
2023/10/10 09:49:28;;;;;;;1.05;0.32;;;;;;;20.88;100.00;96427.31;1007998;29;20191;-78
2023/10/10 09:50:35;;;;;;;0.60;0.60;;;;;;;20.74;100.00;96415.22;1018431;29;20230;-78
2023/10/10 09:51:08;;;;;;;2.97;1.73;;;;;;;20.74;100.00;96410.66;1018604;29;20051;-76
2023/10/10 09:53:19;;;;;;;3.83;1.15;;;;;;;20.62;100.00;96413.13;1016616;29;20689;-78
2023/10/10 09:53:52;;;;;;;0.38;0.38;;;;;;;20.68;100.00;96412.69;1013216;29;20036;-77
2023/10/10 09:54:25;;;;;;;3.00;0.80;;;;;;;20.73;100.00;96427.78;1006908;29;20065;-78
2023/10/10 09:55:07;;;;;;;0.60;0.50;;;;;;;20.74;100.00;96416.00;1002954;29;20032;-78
2023/10/10 09:55:42;;;;;;;0.22;0.13;;;;;;;20.84;100.00;96415.69;999216;29;20041;-78
2023/10/10 09:56:15;;;;;;;1.00;0.73;;;;;;;20.95;100.00;96422.31;1010795;29;20826;-76
2023/10/10 09:56:48;;;;;;;1.67;1.48;;;;;;;21.08;100.00;96415.25;1013348;29;20490;-77
2023/10/10 09:57:18;;;;;;;1.95;0.70;;;;;;;21.05;100.00;96405.19;1003008;29;20017;-77
2023/10/10 09:58:15;;;;;;;0.52;0.52;;;;;;;21.14;100.00;96415.91;1014632;29;20031;-77
2023/10/10 09:58:46;;;;;;;1.88;1.00;;;;;;;21.10;100.00;96407.72;1006843;29;20033;-76
2023/10/10 09:59:20;;;;;;;7.68;2.40;;;;;;;21.24;100.00;96420.13;999229;29;20022;-76
2023/10/10 09:59:56;;;;;;;0.88;0.88;;;;;;;21.26;100.00;96416.06;1003049;29;20022;-78
2023/10/10 10:01:14;;;;;;;3.63;1.55;;;;;;;21.11;100.00;96408.50;1010488;29;20024;-76
2023/10/10 10:01:47;;;;;;;;;;;;;;;21.18;100.00;96412.28;1003448;29;20450;-77
2023/10/10 10:02:40;;;;;;;0.40;0.40;;;;;;;21.23;100.00;96414.03;1009998;29;19904;-77
2023/10/10 10:04:05;;;;;;;2.45;0.65;;;;;;;21.33;100.00;96410.25;1006842;29;20037;-77
2023/10/10 10:04:41;;;;;;;0.88;0.88;;;;;;;21.11;100.00;96400.50;1008885;29;20081;-80
2023/10/10 10:05:17;;;;;;;3.55;1.10;;;;;;;21.06;100.00;96389.97;1003028;29;20024;-77
2023/10/10 10:05:58;;;;;;;0.50;0.50;;;;;;;21.17;100.00;96408.03;1002884;29;20035;-80
2023/10/10 10:06:52;;;;;;;1.40;1.30;;;;;;;21.31;100.00;96413.22;1006762;29;20025;-75
2023/10/10 10:07:35;;;;;;;1.00;0.90;;;;;;;21.31;100.00;96415.88;1013973;29;20026;-76
2023/10/10 10:08:21;;;;;;;1.77;0.80;;;;;;;21.40;100.00;96419.38;1012549;29;20016;-77
2023/10/10 10:09:51;;;;;;;0.08;0.08;;;;;;;21.52;100.00;96418.72;1010628;29;20043;-77
2023/10/10 10:10:16;;;;;;;11.60;1.45;;;;;;;21.49;100.00;96408.66;1004102;29;20042;-76
2023/10/10 10:11:11;;;;;;;3.42;1.10;;;;;;;21.63;100.00;96420.00;1015258;29;20028;-75
2023/10/10 10:11:51;;;;;;;1.48;0.90;;;;;;;21.74;100.00;96404.41;1010926;29;20028;-77
2023/10/10 10:12:31;;;;;;;7.10;1.83;;;;;;;21.88;100.00;96413.00;1007642;29;20048;-77
2023/10/10 10:13:19;;;;;;;1.45;0.80;;;;;;;21.99;100.00;96407.31;1014448;29;20024;-77
2023/10/10 10:14:22;;;;;;;2.05;1.95;;;;;;;21.97;100.00;96409.53;1010496;29;20020;-78
2023/10/10 10:15:20;;;;;;;0.45;0.45;;;;;;;21.94;100.00;96418.19;1003757;29;20074;-77
2023/10/10 10:16:19;;;;;;;1.70;0.60;;;;;;;21.67;100.00;96401.44;1006613;29;20491;-77
2023/10/10 10:16:54;;;;;;;0.85;0.75;;;;;;;21.83;100.00;96402.50;1013768;29;20024;-78
2023/10/10 10:17:48;;;;;;;0.40;0.40;;;;;;;21.91;100.00;96414.25;1010591;29;20021;-78
2023/10/10 10:18:29;;;;;;;0.90;0.85;;;;;;;21.84;100.00;96409.41;1006804;29;20028;-76
2023/10/10 10:19:17;;;;;;;0.40;0.40;;;;;;;21.91;100.00;96414.25;1006619;29;20025;-77
2023/10/10 10:19:47;;;;;;;0.65;0.52;;;;;;;21.97;100.00;96404.19;1002970;29;20018;-76
2023/10/10 10:20:25;;;;;;;1.52;1.35;;;;;;;21.92;100.00;96415.81;1006749;29;20025;-78
2023/10/10 10:21:59;;;;;;;1.55;1.40;;;;;;;21.76;100.00;96412.09;1013096;29;20105;-74
2023/10/10 10:22:30;;;;;;;;;;;;;;;21.98;100.00;96414.56;1014515;29;20025;-77
2023/10/10 10:23:01;;;;;;;1.95;1.45;;;;;;;22.00;100.00;96408.88;1017530;29;19907;-76
2023/10/10 10:23:44;;;;;;;2.60;1.55;;;;;;;21.92;100.00;96407.03;1014224;29;20028;-76
2023/10/10 10:24:15;;;;;;;0.15;0.10;;;;;;;22.07;100.00;96415.31;1014486;29;20088;-76
2023/10/10 10:24:46;;;;;;;0.08;0.08;;;;;;;22.05;100.00;96416.75;1010349;29;20113;-75
2023/10/10 10:25:25;;;;;;;0.73;0.73;;;;;;;22.10;100.00;96409.34;1011123;29;20044;-78
2023/10/10 10:26:04;;;;;;;1.45;0.90;;;;;;;22.24;100.00;96414.50;1013015;29;20453;-75
2023/10/10 10:26:44;;;;;;;1.35;1.00;;;;;;;22.03;100.00;96405.56;1009895;29;20025;-74
2023/10/10 10:27:27;;;;;;;2.25;1.45;;;;;;;22.20;100.00;96415.44;1019093;29;20023;-76
2023/10/10 10:28:10;;;;;;;5.18;0.60;;;;;;;22.05;100.00;96404.16;1022846;29;20082;-77
2023/10/10 10:28:41;;;;;;;2.17;0.93;;;;;;;22.19;100.00;96417.34;1011305;29;20025;-80
2023/10/10 10:29:15;;;;;;;2.20;1.58;;;;;;;22.21;100.00;96423.16;1007355;29;20029;-80
2023/10/10 10:29:53;;;;;;;1.17;1.02;;;;;;;22.13;100.00;96410.56;1011338;29;20768;-78
2023/10/10 10:30:55;;;;;;;0.80;0.80;;;;;;;22.36;100.00;96409.25;1007358;29;20438;-78
2023/10/10 10:31:32;;;;;;;3.70;1.33;;;;;;;22.23;100.00;96409.47;999764;29;20026;-79